createdAt,value
2018-05-10T00:01:28.889Z,5.87
2018-05-10T00:03:56.389Z,5.90
2018-05-10T00:06:23.974Z,5.63
2018-05-10T00:08:51.540Z,5.73
2018-05-10T00:11:19.107Z,5.90
2018-05-10T00:13:46.615Z,6.17
2018-05-10T00:16:14.126Z,5.50
2018-05-10T00:18:41.641Z,5.77
2018-05-10T00:21:09.131Z,5.63
2018-05-10T00:23:36.623Z,6.10
2018-05-10T00:26:04.137Z,5.77
2018-05-10T00:28:31.635Z,5.93
2018-05-10T00:30:59.213Z,5.80
2018-05-10T00:33:27.476Z,6.23
2018-05-10T00:35:55.047Z,6.13
2018-05-10T00:38:22.635Z,5.97
2018-05-10T00:40:50.190Z,5.60
2018-05-10T00:43:17.761Z,5.47
2018-05-10T00:45:45.288Z,6.37
2018-05-10T00:48:12.780Z,5.63
2018-05-10T00:50:40.366Z,5.77
2018-05-10T00:53:07.863Z,5.47
2018-05-10T00:55:36.210Z,5.93
2018-05-10T00:58:03.772Z,5.83
2018-05-10T01:00:31.344Z,5.70
2018-05-10T01:02:58.906Z,5.93
2018-05-10T01:05:26.460Z,5.80
2018-05-10T01:07:53.957Z,6.10
2018-05-10T01:10:22.290Z,5.53
2018-05-10T01:12:49.791Z,5.73
2018-05-10T01:15:18.077Z,5.63
2018-05-10T01:17:45.575Z,6.60
2018-05-10T01:20:13.088Z,5.90
2018-05-10T01:22:40.656Z,6.23
2018-05-10T01:25:08.145Z,5.53
2018-05-10T01:27:36.470Z,5.67
2018-05-10T01:30:04.787Z,6.47
2018-05-10T01:32:32.361Z,6.23
2018-05-10T01:35:11.905Z,5.97
2018-05-10T01:37:40.991Z,5.90
2018-05-10T01:40:08.475Z,5.97
2018-05-10T01:42:36.853Z,6.27
2018-05-10T01:45:04.429Z,6.07
2018-05-10T01:47:31.931Z,5.50
2018-05-10T01:49:59.432Z,5.77
2018-05-10T01:52:26.956Z,5.83
2018-05-10T01:54:54.451Z,6.20
2018-05-10T01:57:22.027Z,5.47
2018-05-10T01:59:49.606Z,6.53
2018-05-10T02:02:17.115Z,5.53
2018-05-10T02:04:44.607Z,6.00
2018-05-10T02:07:12.099Z,6.10
2018-05-10T02:09:39.663Z,5.90
2018-05-10T02:12:07.180Z,6.20
2018-05-10T02:14:34.662Z,6.23
2018-05-10T02:17:02.251Z,6.17
2018-05-10T02:19:29.817Z,6.23
2018-05-10T02:21:57.329Z,6.30
2018-05-10T02:24:24.838Z,6.47
2018-05-10T02:26:52.413Z,6.53
2018-05-10T02:29:19.902Z,6.10
2018-05-10T02:31:48.160Z,6.37
2018-05-10T02:34:15.675Z,6.67
2018-05-10T02:36:43.191Z,6.17
2018-05-10T02:39:10.694Z,6.47
2018-05-10T02:41:38.219Z,6.13
2018-05-10T02:44:05.716Z,6.67
2018-05-10T02:46:34.067Z,6.37
2018-05-10T02:49:01.635Z,6.50
2018-05-10T02:51:29.121Z,6.87
2018-05-10T02:53:57.477Z,6.47
2018-05-10T02:56:24.987Z,6.40
2018-05-10T02:58:52.501Z,6.97
2018-05-10T03:01:20.087Z,6.30
2018-05-10T03:03:47.643Z,6.40
2018-05-10T03:06:15.133Z,6.40
2018-05-10T03:08:43.491Z,7.07
2018-05-10T03:11:11.053Z,6.97
2018-05-10T03:13:38.557Z,7.00
2018-05-10T03:16:06.906Z,7.67
2018-05-10T03:18:34.414Z,7.60
2018-05-10T03:21:01.921Z,7.47
2018-05-10T03:23:29.498Z,7.63
2018-05-10T03:25:57.001Z,7.00
2018-05-10T03:28:24.531Z,7.70
2018-05-10T03:30:52.034Z,7.13
2018-05-10T03:33:19.562Z,7.33
2018-05-10T03:35:47.037Z,7.33
2018-05-10T03:38:15.395Z,7.17
2018-05-10T03:40:42.981Z,7.40
2018-05-10T03:43:10.469Z,6.77
2018-05-10T03:45:37.968Z,8.70
2018-05-10T03:48:05.474Z,12.13
2018-05-10T03:50:32.969Z,14.83
2018-05-10T03:53:00.475Z,23.17
2018-05-10T03:55:28.057Z,14.10
2018-05-10T03:57:55.557Z,19.83
2018-05-10T04:00:23.201Z,24.67
2018-05-10T04:06:16.039Z,30.63
2018-05-10T04:08:55.529Z,30.80
2018-05-10T04:11:26.858Z,33.80
2018-05-10T04:13:55.215Z,32.10
2018-05-10T04:16:22.727Z,31.83
2018-05-10T04:18:51.124Z,32.17
2018-05-10T04:21:18.728Z,30.57
2018-05-10T04:23:46.227Z,27.87
2018-05-10T04:26:14.485Z,27.93
2018-05-10T04:28:41.990Z,26.43
2018-05-10T04:31:09.482Z,25.67
2018-05-10T04:33:37.001Z,26.83
2018-05-10T04:36:05.265Z,25.90
2018-05-10T04:38:32.784Z,25.77
2018-05-10T04:41:00.293Z,24.77
2018-05-10T04:43:28.563Z,26.93
2018-05-10T04:45:56.131Z,25.23
2018-05-10T04:48:23.685Z,24.00
2018-05-10T04:50:51.272Z,24.13
2018-05-10T04:53:18.834Z,25.03
2018-05-10T04:55:46.345Z,23.20
2018-05-10T04:58:13.848Z,23.43
2018-05-10T05:00:41.354Z,23.17
2018-05-10T05:03:08.878Z,22.50
2018-05-10T05:05:36.382Z,23.53
2018-05-10T05:08:04.646Z,22.43
2018-05-10T05:10:32.922Z,21.70
2018-05-10T05:13:00.426Z,22.47
2018-05-10T05:15:27.933Z,21.20
2018-05-10T05:17:55.435Z,22.07
2018-05-10T05:20:23.689Z,21.43
2018-05-10T05:22:51.203Z,22.07
2018-05-10T05:25:18.698Z,20.97
2018-05-10T05:27:46.196Z,20.07
2018-05-10T05:30:13.693Z,20.70
2018-05-10T05:32:41.447Z,20.60
2018-05-10T05:35:08.894Z,20.50
2018-05-10T05:37:37.168Z,20.50
2018-05-10T05:40:04.699Z,19.57
2018-05-10T05:42:32.211Z,19.93
2018-05-10T05:45:00.482Z,20.17
2018-05-10T05:47:28.053Z,19.57
2018-05-10T05:49:55.627Z,19.87
2018-05-10T05:52:23.883Z,19.97
2018-05-10T05:54:51.395Z,18.87
2018-05-10T05:57:18.915Z,19.67
2018-05-10T05:59:46.409Z,18.43
2018-05-10T06:02:13.915Z,18.83
2018-05-10T06:04:41.518Z,18.03
2018-05-10T06:07:09.021Z,18.30
2018-05-10T06:09:36.521Z,18.90
2018-05-10T06:12:04.114Z,19.33
2018-05-10T06:14:32.440Z,18.77
2018-05-10T06:16:59.897Z,18.50
2018-05-10T06:19:27.422Z,18.23
2018-05-10T06:21:54.985Z,17.80
2018-05-10T06:24:22.545Z,17.80
2018-05-10T06:26:50.060Z,18.97
2018-05-10T06:29:17.590Z,18.20
2018-05-10T06:31:45.863Z,17.90
2018-05-10T06:34:13.370Z,18.10
2018-05-10T06:36:40.877Z,19.23
2018-05-10T06:39:08.460Z,18.60
2018-05-10T06:41:36.016Z,18.10
2018-05-10T06:44:03.594Z,17.40
2018-05-10T06:46:31.122Z,17.83
2018-05-10T06:48:58.716Z,18.00
2018-05-10T06:51:26.232Z,18.40
2018-05-10T06:53:53.849Z,17.57
2018-05-10T06:56:21.418Z,17.30
2018-05-10T06:58:48.926Z,18.03
2018-05-10T07:01:16.442Z,18.10
2018-05-10T07:03:44.019Z,18.50
2018-05-10T07:06:11.517Z,18.93
2018-05-10T07:08:39.193Z,17.77
2018-05-10T07:11:06.678Z,18.30
2018-05-10T07:13:34.276Z,18.30
2018-05-10T07:16:01.806Z,18.40
2018-05-10T07:18:29.312Z,17.17
2018-05-10T07:20:56.809Z,17.80
2018-05-10T07:23:24.437Z,17.47
2018-05-10T07:25:52.697Z,17.93
2018-05-10T07:28:20.279Z,17.07
2018-05-10T07:30:47.851Z,16.53
2018-05-10T07:33:15.348Z,16.57
2018-05-10T07:35:43.607Z,15.87
2018-05-10T07:38:11.102Z,16.43
2018-05-10T07:40:38.615Z,15.83
2018-05-10T07:43:06.194Z,16.27
2018-05-10T07:45:33.673Z,15.23
2018-05-10T07:48:02.041Z,16.67
2018-05-10T07:50:29.605Z,15.93
2018-05-10T07:52:57.098Z,16.40
2018-05-10T07:55:25.372Z,16.13
2018-05-10T07:57:53.635Z,16.13
2018-05-10T08:00:21.143Z,14.57
2018-05-10T08:02:48.656Z,16.27
2018-05-10T08:05:16.235Z,16.10
2018-05-10T08:07:43.754Z,16.60
2018-05-10T08:10:11.456Z,16.53
2018-05-10T08:12:39.643Z,16.50
2018-05-10T08:15:07.202Z,16.20
2018-05-10T08:17:34.697Z,16.23
2018-05-10T08:20:03.059Z,16.20
2018-05-10T08:22:30.567Z,15.53
2018-05-10T08:24:58.086Z,16.27
2018-05-10T08:27:44.573Z,15.87
2018-05-10T08:30:12.109Z,16.13
2018-05-10T08:32:39.584Z,15.97
2018-05-10T08:35:07.083Z,15.43
2018-05-10T08:37:34.576Z,15.63
2018-05-10T08:40:02.100Z,16.37
2018-05-10T08:42:29.599Z,15.47
2018-05-10T08:44:57.981Z,15.70
2018-05-10T08:47:26.248Z,16.50
2018-05-10T08:49:53.796Z,16.60
2018-05-10T08:52:21.304Z,15.50
2018-05-10T08:54:48.815Z,15.00
2018-05-10T08:57:16.395Z,15.40
2018-05-10T08:59:43.895Z,15.70
2018-05-10T09:02:11.421Z,15.07
2018-05-10T09:04:38.980Z,14.10
2018-05-10T09:07:06.556Z,15.40
2018-05-10T09:09:34.144Z,14.73
2018-05-10T09:12:02.407Z,15.70
2018-05-10T09:14:29.982Z,14.87
2018-05-10T09:16:57.528Z,15.20
2018-05-10T09:19:25.048Z,14.90
2018-05-10T09:21:52.640Z,14.73
2018-05-10T09:24:20.110Z,15.13
2018-05-10T09:26:47.623Z,13.93
2018-05-10T09:29:15.906Z,13.43
2018-05-10T09:31:44.172Z,14.03
2018-05-10T09:34:12.444Z,14.30
2018-05-10T09:36:40.009Z,14.67
2018-05-10T09:39:07.596Z,13.80
2018-05-10T09:41:35.054Z,14.07
2018-05-10T09:44:03.432Z,14.00
2018-05-10T09:46:31.708Z,13.23
2018-05-10T09:48:59.269Z,13.60
2018-05-10T09:51:26.869Z,12.93
2018-05-10T09:53:54.405Z,13.53
2018-05-10T09:56:21.980Z,12.80
2018-05-10T09:58:49.494Z,13.47
2018-05-10T10:01:16.980Z,13.10
2018-05-10T10:03:44.483Z,13.70
2018-05-10T10:06:12.885Z,13.17
2018-05-10T10:08:40.417Z,12.37
2018-05-10T10:11:07.973Z,13.10
2018-05-10T10:13:35.479Z,13.03
2018-05-10T10:16:03.005Z,12.83
2018-05-10T10:18:30.541Z,13.47
2018-05-10T10:20:58.043Z,13.13
2018-05-10T10:23:25.594Z,13.10
2018-05-10T10:25:53.171Z,12.50
2018-05-10T10:28:20.669Z,12.77
2018-05-10T10:30:48.300Z,13.20
2018-05-10T10:33:15.856Z,13.10
2018-05-10T10:35:43.381Z,12.00
2018-05-10T10:38:10.956Z,12.03
2018-05-10T10:40:38.457Z,12.83
2018-05-10T10:43:06.030Z,11.87
2018-05-10T10:45:33.570Z,12.50
2018-05-10T10:48:01.035Z,11.97
2018-05-10T10:50:28.548Z,12.90
2018-05-10T10:52:56.874Z,11.70
2018-05-10T10:55:25.183Z,11.53
2018-05-10T10:57:52.711Z,11.67
2018-05-10T11:00:20.306Z,11.57
2018-05-10T11:02:47.890Z,10.87
2018-05-10T11:05:15.405Z,10.83
2018-05-10T11:07:43.013Z,10.80
2018-05-10T11:10:10.501Z,10.93
2018-05-10T11:12:38.863Z,10.63
2018-05-10T11:15:06.464Z,10.93
2018-05-10T11:17:33.888Z,10.70
2018-05-10T11:20:01.429Z,10.10
2018-05-10T11:22:28.918Z,9.63
2018-05-10T11:24:56.409Z,10.30
2018-05-10T11:27:24.725Z,10.33
2018-05-10T11:29:53.045Z,10.17
2018-05-10T11:32:20.631Z,9.97
2018-05-10T11:34:48.902Z,9.70
2018-05-10T11:37:16.398Z,9.33
2018-05-10T11:39:43.897Z,10.07
2018-05-10T11:42:11.389Z,9.27
2018-05-10T11:44:38.949Z,9.07
2018-05-10T11:47:06.470Z,8.97
2018-05-10T11:49:33.963Z,8.97
2018-05-10T11:52:01.523Z,9.00
2018-05-10T11:54:29.827Z,9.20
2018-05-10T11:56:57.399Z,8.70
2018-05-10T11:59:24.897Z,8.57
2018-05-10T12:01:52.417Z,8.00
2018-05-10T12:04:19.911Z,8.90
2018-05-10T12:06:48.277Z,8.03
2018-05-10T12:09:15.815Z,8.93
2018-05-10T12:11:43.410Z,8.43
2018-05-10T12:14:10.982Z,7.90
2018-05-10T12:16:38.554Z,7.63
2018-05-10T12:19:06.086Z,8.50
2018-05-10T12:21:33.673Z,8.87
2018-05-10T12:24:01.202Z,8.23
2018-05-10T12:26:28.702Z,7.93
2018-05-10T12:28:56.286Z,7.90
2018-05-10T12:31:24.661Z,8.17
2018-05-10T12:33:52.204Z,8.10
2018-05-10T12:36:19.796Z,8.03
2018-05-10T12:38:48.176Z,7.50
2018-05-10T12:41:16.455Z,7.60
2018-05-10T12:43:43.942Z,7.40
2018-05-10T12:46:11.487Z,7.93
2018-05-10T12:48:39.083Z,7.63
2018-05-10T12:51:06.609Z,6.97
2018-05-10T12:53:34.875Z,7.30
2018-05-10T12:56:02.431Z,7.30
2018-05-10T12:58:31.478Z,6.20
2018-05-10T13:00:59.833Z,6.53
2018-05-10T13:03:27.413Z,6.57
2018-05-10T13:05:54.910Z,6.10
2018-05-10T13:08:22.427Z,5.60
2018-05-10T13:10:50.010Z,5.70
2018-05-10T13:13:17.551Z,5.87
2018-05-10T13:15:45.044Z,5.43
2018-05-10T13:18:13.310Z,5.27
2018-05-10T13:20:40.835Z,5.17
2018-05-10T13:23:08.338Z,5.17
2018-05-10T13:25:35.902Z,4.53
2018-05-10T13:28:03.401Z,4.57
2018-05-10T13:30:31.666Z,4.33
2018-05-10T13:32:59.930Z,4.10
2018-05-10T13:35:27.457Z,4.13
2018-05-10T13:37:54.949Z,4.40
2018-05-10T13:40:22.433Z,4.30
2018-05-10T13:42:49.941Z,3.87
2018-05-10T13:45:17.469Z,3.70
2018-05-10T13:47:45.764Z,3.97
2018-05-10T13:50:14.118Z,3.67
2018-05-10T13:52:43.120Z,4.10
2018-05-10T13:55:10.690Z,4.10
2018-05-10T13:57:38.336Z,3.70
2018-05-10T14:00:05.919Z,3.47
2018-05-10T14:02:33.430Z,3.20
2018-05-10T14:05:00.952Z,3.60
2018-05-10T14:07:28.524Z,3.40
2018-05-10T14:09:56.038Z,3.23
2018-05-10T14:12:23.656Z,3.50
2018-05-10T14:14:51.156Z,3.10
2018-05-10T14:17:18.667Z,3.07
2018-05-10T14:19:46.206Z,3.67
2018-05-10T14:22:13.794Z,3.30
2018-05-10T14:24:41.306Z,3.10
2018-05-10T14:27:08.810Z,3.00
2018-05-10T14:29:36.410Z,4.87
2018-05-10T14:32:04.006Z,3.83
2018-05-10T14:34:31.514Z,27.63
2018-05-10T14:36:59.111Z,12.47
2018-05-10T14:39:26.631Z,12.93
2018-05-10T14:41:54.150Z,10.50
2018-05-10T14:44:22.510Z,8.03
2018-05-10T14:46:50.030Z,7.20
2018-05-10T14:49:17.655Z,6.63
2018-05-10T14:51:45.219Z,6.10
2018-05-10T14:54:12.730Z,6.13
2018-05-10T14:56:40.218Z,6.53
2018-05-10T14:59:07.729Z,5.83
2018-05-10T15:01:36.009Z,5.73
2018-05-10T15:04:04.284Z,6.00
2018-05-10T15:06:31.792Z,5.93
2018-05-10T15:08:59.300Z,6.27
2018-05-10T15:11:26.789Z,5.83
2018-05-10T15:13:55.083Z,5.73
2018-05-10T15:16:23.429Z,5.47
2018-05-10T15:18:51.009Z,5.30
2018-05-10T15:21:18.564Z,5.60
2018-05-10T15:23:46.114Z,5.43
2018-05-10T15:26:13.686Z,5.87
2018-05-10T15:28:41.186Z,5.90
2018-05-10T15:31:09.443Z,5.50
2018-05-10T15:33:36.940Z,5.57
2018-05-10T15:36:04.460Z,5.83
2018-05-10T15:38:31.978Z,5.53
2018-05-10T15:40:59.500Z,5.80
2018-05-10T15:43:27.006Z,6.33
2018-05-10T15:45:54.512Z,6.70
2018-05-10T15:48:22.097Z,10.43
2018-05-10T15:50:49.658Z,11.60
2018-05-10T15:53:17.229Z,9.57
2018-05-10T15:55:44.719Z,8.50
2018-05-10T15:58:13.074Z,8.23
2018-05-10T16:00:40.630Z,8.27
2018-05-10T16:03:08.204Z,8.23
2018-05-10T16:05:35.774Z,7.33
2018-05-10T16:08:03.272Z,7.93
2018-05-10T16:10:30.803Z,7.53
2018-05-10T16:12:58.308Z,7.70
2018-05-10T16:15:25.844Z,7.07
2018-05-10T16:17:54.118Z,7.30
2018-05-10T16:20:21.625Z,7.13
2018-05-10T16:22:49.118Z,6.90
2018-05-10T16:25:16.704Z,6.50
2018-05-10T16:27:44.206Z,6.63
2018-05-10T16:30:11.715Z,7.50
2018-05-10T16:32:39.302Z,6.70
2018-05-10T16:35:06.880Z,6.77
2018-05-10T16:37:35.144Z,5.97
2018-05-10T16:40:02.724Z,6.40
2018-05-10T16:42:31.714Z,6.47
2018-05-10T16:44:59.226Z,5.73
2018-05-10T16:47:26.742Z,5.63
2018-05-10T16:49:54.333Z,5.67
2018-05-10T16:52:21.824Z,5.60
2018-05-10T16:54:49.320Z,5.83
2018-05-10T16:57:16.801Z,5.03
2018-05-10T16:59:44.322Z,4.50
2018-05-10T17:02:11.813Z,5.03
2018-05-10T17:04:39.347Z,4.63
2018-05-10T17:07:06.850Z,3.80
2018-05-10T17:09:34.351Z,3.90
2018-05-10T17:12:02.726Z,3.90
2018-05-10T17:14:30.994Z,4.47
2018-05-10T17:16:58.571Z,4.07
2018-05-10T17:19:26.058Z,4.10
2018-05-10T17:21:53.572Z,4.67
2018-05-10T17:24:21.074Z,3.80
2018-05-10T17:26:49.334Z,4.13
2018-05-10T17:29:16.858Z,3.93
2018-05-10T17:31:44.360Z,4.13
2018-05-10T17:34:12.616Z,4.07
2018-05-10T17:36:40.118Z,3.63
2018-05-10T17:39:07.609Z,4.20
2018-05-10T17:41:35.338Z,3.80
2018-05-10T17:44:03.536Z,4.10
2018-05-10T17:46:31.813Z,4.03
2018-05-10T17:48:59.364Z,3.73
2018-05-10T17:51:26.942Z,3.77
2018-05-10T17:53:54.520Z,3.80
2018-05-10T17:56:22.878Z,3.80
2018-05-10T17:58:50.387Z,3.93
2018-05-10T18:01:17.908Z,4.20
2018-05-10T18:03:45.407Z,3.70
2018-05-10T18:06:13.784Z,3.97
2018-05-10T18:08:42.057Z,3.73
2018-05-10T18:11:10.438Z,3.60
2018-05-10T18:13:38.035Z,3.67
2018-05-10T18:16:05.567Z,3.60
2018-05-10T18:18:34.660Z,3.37
2018-05-10T18:21:02.154Z,3.43
2018-05-10T18:23:30.501Z,3.70
2018-05-10T18:25:57.988Z,3.97
2018-05-10T18:28:26.255Z,3.80
2018-05-10T18:30:53.811Z,3.80
2018-05-10T18:33:21.342Z,3.80
2018-05-10T18:35:49.567Z,4.10
2018-05-10T18:38:17.091Z,3.23
2018-05-10T18:40:44.667Z,3.60
2018-05-10T18:43:12.161Z,3.60
2018-05-10T18:45:39.667Z,4.07
2018-05-10T18:48:07.171Z,3.50
2018-05-10T18:50:34.751Z,3.60
2018-05-10T18:53:02.331Z,3.50
2018-05-10T18:55:29.857Z,3.50
2018-05-10T18:57:57.469Z,3.57
2018-05-10T19:00:25.162Z,3.50
2018-05-10T19:02:52.726Z,3.90
2018-05-10T19:05:20.231Z,3.33
2018-05-10T19:07:47.751Z,3.90
2018-05-10T19:10:15.272Z,11.03
2018-05-10T19:12:42.781Z,8.57
2018-05-10T19:15:10.340Z,7.07
2018-05-10T19:17:38.613Z,6.57
2018-05-10T19:20:06.987Z,5.70
2018-05-10T19:22:34.494Z,5.67
2018-05-10T19:25:02.015Z,5.77
2018-05-10T19:27:29.545Z,5.80
2018-05-10T19:29:57.052Z,4.83
2018-05-10T19:32:25.375Z,5.33
2018-05-10T19:34:52.953Z,4.70
2018-05-10T19:37:20.477Z,5.07
2018-05-10T19:39:48.007Z,4.90
2018-05-10T19:42:15.555Z,4.47
2018-05-10T19:44:43.179Z,4.60
2018-05-10T19:47:11.554Z,5.03
2018-05-10T19:49:39.823Z,4.70
2018-05-10T19:52:07.352Z,4.40
2018-05-10T19:54:34.869Z,4.57
2018-05-10T19:57:03.244Z,4.77
2018-05-10T19:59:30.711Z,4.60
2018-05-10T20:01:59.451Z,4.83
2018-05-10T20:04:27.058Z,3.87
2018-05-10T20:06:55.333Z,4.30
2018-05-10T20:09:22.913Z,3.87
2018-05-10T20:11:50.435Z,4.17
2018-05-10T20:14:17.947Z,4.30
2018-05-10T20:16:46.215Z,4.07
2018-05-10T20:19:13.776Z,3.70
2018-05-10T20:21:41.353Z,5.47
2018-05-10T20:24:08.961Z,4.40
2018-05-10T20:26:36.479Z,6.93
2018-05-10T20:29:03.985Z,7.67
2018-05-10T20:31:32.533Z,7.30
2018-05-10T20:34:00.063Z,6.10
2018-05-10T20:36:27.561Z,6.83
2018-05-10T20:38:55.085Z,6.63
2018-05-10T20:41:22.589Z,6.37
2018-05-10T20:43:50.119Z,5.50
2018-05-10T20:46:17.739Z,6.20
2018-05-10T20:48:46.014Z,5.90
2018-05-10T20:51:14.291Z,5.47
2018-05-10T20:53:41.808Z,5.67
2018-05-10T20:56:09.431Z,5.50
2018-05-10T20:58:37.804Z,4.90
2018-05-10T21:01:05.371Z,5.40
2018-05-10T21:03:33.652Z,4.97
2018-05-10T21:06:01.159Z,4.50
2018-05-10T21:08:28.659Z,4.90
2018-05-10T21:10:56.253Z,5.37
2018-05-10T21:13:23.763Z,4.70
2018-05-10T21:15:51.275Z,4.87
2018-05-10T21:18:20.362Z,5.00
2018-05-10T21:20:47.855Z,4.70
2018-05-10T21:23:16.175Z,5.10
2018-05-10T21:25:43.685Z,5.37
2018-05-10T21:28:11.183Z,5.00
2018-05-10T21:30:38.695Z,4.80
2018-05-10T21:33:06.277Z,4.63
2018-05-10T21:35:33.821Z,4.20
2018-05-10T21:38:01.370Z,5.20
2018-05-10T21:40:29.386Z,4.73
2018-05-10T21:42:56.986Z,4.80
2018-05-10T21:45:25.239Z,4.80
2018-05-10T21:47:52.796Z,4.63
2018-05-10T21:50:20.279Z,3.43
2018-05-10T21:52:48.547Z,4.17
2018-05-10T21:55:16.103Z,4.40
2018-05-10T21:57:43.609Z,4.53
2018-05-10T22:00:11.233Z,4.50
2018-05-10T22:02:38.744Z,4.47
2018-05-10T22:05:06.235Z,4.23
2018-05-10T22:07:33.724Z,4.43
2018-05-10T22:10:01.319Z,4.17
2018-05-10T22:12:29.665Z,4.20
2018-05-10T22:14:57.183Z,4.30
2018-05-10T22:17:25.469Z,4.10
2018-05-10T22:19:52.973Z,4.17
2018-05-10T22:22:20.471Z,3.70
2018-05-10T22:24:48.751Z,3.77
2018-05-10T22:27:16.240Z,3.90
2018-05-10T22:29:43.756Z,3.47
2018-05-10T22:32:11.329Z,4.00
2018-05-10T22:34:38.825Z,4.23
2018-05-10T22:37:07.109Z,3.80
2018-05-10T22:39:35.382Z,3.80
2018-05-10T22:42:03.637Z,3.80
2018-05-10T22:44:31.215Z,3.50
2018-05-10T22:46:58.731Z,3.57
2018-05-10T22:49:26.249Z,3.67
2018-05-10T22:51:53.731Z,3.37
2018-05-10T22:54:22.020Z,3.37
2018-05-10T22:56:50.306Z,3.60
2018-05-10T22:59:17.877Z,3.60
2018-05-10T23:01:45.396Z,3.40
2018-05-10T23:04:12.884Z,3.20
2018-05-10T23:06:41.267Z,3.87
2018-05-10T23:09:09.628Z,3.40
2018-05-10T23:11:37.145Z,3.20
2018-05-10T23:14:04.782Z,3.10
2018-05-10T23:16:33.036Z,3.30
2018-05-10T23:19:00.613Z,3.30
2018-05-10T23:21:28.105Z,3.13
2018-05-10T23:23:56.361Z,3.57
2018-05-10T23:26:23.923Z,3.37
2018-05-10T23:28:51.485Z,3.30
2018-05-10T23:31:18.981Z,3.10
2018-05-10T23:33:47.323Z,3.47
2018-05-10T23:36:14.912Z,3.20
2018-05-10T23:38:42.432Z,3.00
2018-05-10T23:41:09.965Z,2.80
2018-05-10T23:43:37.431Z,3.00
2018-05-10T23:46:04.957Z,2.60
2018-05-10T23:48:32.450Z,3.00
2018-05-10T23:51:00.827Z,3.00
2018-05-10T23:53:29.088Z,2.87
2018-05-10T23:55:56.657Z,2.80
2018-05-10T23:58:24.146Z,2.80
